AirNav   Everest Fuels
 
 1261 users online  

E25 Wickenburg Municipal Airport
Wickenburg, Arizona, USA

GOING TO WICKENBURG?


FAA INFORMATION EFFECTIVE 15 JULY 2021

Location

FAA Identifier: E25
Lat/Long: 33-58-14.2656N 112-47-42.3233W
33-58.237760N 112-47.705388W
33.9706293,-112.7950898
(estimated)
Elevation: 2378.6 ft. / 725.0 m (surveyed)
Variation: 13E (1985)
From city: 3 miles W of WICKENBURG, AZ
Time zone: UTC -7 (year round; does not observe DST)
Zip code: 85390

Airport Operations

Airport use: Open to the public
Activation date: 05/1969
Control tower: no
ARTCC: ALBUQUERQUE CENTER
FSS: PRESCOTT FLIGHT SERVICE STATION
NOTAMs facility: PRC (NOTAM-D service available)
Attendance: TUE-SAT 0700-1600
AFTER HRS CTC (928) 232-0397
Wind indicator: lighted, LIGHTED WIND INDICATORS INOP.
Segmented circle: yes
Lights: ACTVT REIL RWY 05 & 23; MIRL RWY 05/23, TWY LGTS - CTAF. PAPI RWY 05 & 23 ON FROM DAWN-DUSK, PAPI RYS 05 & 23 DUSK-DAWN - CTAF.
Beacon: white-green (lighted land airport)
Operates sunset to sunrise.

Airport Communications

CTAF/UNICOM: 123.0
WX AWOS-3: 121.375 (928-684-2487)

Nearby radio navigation aids

VOR radial/distance  VOR name  Freq  Var
BXKr349/31.1BUCKEYE VORTAC110.6014E

Airport Services

Fuel available: 100LL JET-A1+
100LL:SELF-FUELING AVAILABLE 24/7 WITH MAJOR CREDIT CARD. JET 'A' AVAILABLE WITH CALL-OUT OF $100 AFTER 1600 AND ON SUN & MON.
Parking: tiedowns
Airframe service: MINOR
Powerplant service: MINOR
Bulk oxygen: NONE

Runway Information

Runway 5/23

Dimensions: 6101 x 75 ft. / 1860 x 23 m
Surface: asphalt, in good condition
Weight bearing capacity: 
Single wheel: 30.0
Double wheel: 60.0
Runway edge lights: medium intensity
RUNWAY 5  RUNWAY 23
Latitude: 33-57.989590N33-58.485928N
Longitude: 112-48.230338W112-47.180438W
Elevation: 2378.4 ft.2307.3 ft.
Traffic pattern: leftright
Runway heading: 047 magnetic, 060 true227 magnetic, 240 true
Markings: nonprecision, in good conditionnonprecision, in good condition
Visual slope indicator: 4-light PAPI on left (3.00 degrees glide path)4-light PAPI on left (3.00 degrees glide path)
Runway end identifier lights: yesyes
Touchdown point: yes, no lightsyes, no lights
Obstructions: 3 ft. gnd, 201 ft. from runway, 100 ft. left of centerline
RWY 05, 1-3 FT BRUSH 50-190 FT FM THLD, 40 FT L & R OF CNTRLN.
none
RY 05, 1 FT-3 FT BRUSH 0 FT-200 FT FM THRESHOLD, 50 FT - 70 FT R OF CNTRLN.

Airport Ownership and Management from official FAA records

Ownership: Publicly-owned
Owner: TOWN OF WICKENBURG
155 NORTH TEGNER ST SUITE A
WICKENBURG, AZ 85390
Phone 928-684-5451
AIRPORT CTC INFORMATION AVBL AT WWW.WICKENBURGAZ.ORG.
Manager: HERSCHEL WORKMAN
155 NORTH TEGNER ST SUITE A
WICKENBURG, AZ 85390
Phone 928-668-0564

Airport Operational Statistics

Aircraft based on the field: 16
Single engine airplanes: 12
Multi engine airplanes: 1
Gliders airplanes: 1
Ultralights: 2
    
Aircraft operations: avg 99/day *
67% transient general aviation
32% local general aviation
1% air taxi
<1% military
* for 12-month period ending 11 April 2021

Additional Remarks

RWY 23 HAS 150 FT BLAST PAD.
RWY 05 HAS 150 FT BLAST PAD.
WILDLIFE ON OR INVOF ARPT.
ALL LIGHTS ON DIRECTIONAL & HOLD SIGNS AND DISTANCE TO GO MARKERS ARE INOP.
FOR CD CTC LUKE APCH AT 623-856-7361. IF UNA, CTC PHOENIX APCH AT 602-306-2565.

Instrument Procedures

There are no published instrument procedures at E25.

Some nearby airports with instrument procedures:

KLUF - Luke Air Force Base (33 nm SE)
KGEU - Glendale Municipal Airport (36 nm SE)
KGYR - Phoenix Goodyear Airport (39 nm SE)
KDVT - Phoenix Deer Valley Airport (39 nm SE)
KPRC - Prescott Regional Airport - Ernest A Love Field (45 nm NE)
 
Loc | Ops | Rwys | IFR | FBO | Links
Com | Nav | Svcs | Stats | Notes
Area around E25 (Wickenburg Municipal Airport)
 
Road maps at: MapQuest Bing Google
 
Aerial photo
WARNING: Photo may not be current or correct
Aerial photo of E25 (Wickenburg Municipal Airport)
Photo taken 31-Dec-2006

Do you have a better or more recent aerial photo of Wickenburg Municipal Airport that you would like to share? If so, please send us your photo.

 
Sectional chart

 
Airport distance calculator
Flying to Wickenburg Municipal Airport? Find the distance to fly.

From to E25

Sunrise and sunset
Times for 27-Jul-2021
 Local
(UTC-7)
 Zulu
(UTC)
Morning civil twilight05:1212:12
Sunrise05:4012:40
Sunset19:3502:35
Evening civil twilight20:0303:03

Current date and time
Zulu (UTC)  27-Jul-2021 13:35:00
Local (UTC-7)  27-Jul-2021 06:35:00
 
METAR
KBXK 
33nm S 
271315Z AUTO 34003KT 9SM 26/24 A2994 RMK A01
KLUF 
35nm SE 
271256Z AUTO 36003KT 10SM CLR 26/21 A2993 RMK AO2 SLP121 T02620212 $
KGEU 
36nm SE 
271253Z 00000KT 10SM SKC 28/20 A2995 RMK FIRST
KGYR 
40nm SE 
270347Z 00000KT 10SM FEW070 FEW200 33/18 A2989 RMK LAST
KDVT 
40nm SE 
271253Z 04005KT 10SM CLR 26/19 A2996 RMK AO2 SLP119 T02610189
KPRC 
45nm NE 
271253Z 00000KT 9SM CLR 16/14 A3023 RMK AO2 SLP164 T01610144
KSDL 
49nm SE 
271253Z AUTO 00000KT 10SM CLR 27/20 A2996 RMK AO2 SLP119 T02670200
KPHX 
49nm SE 
271251Z 09004KT 10SM FEW120 FEW140 27/19 A2992 RMK AO2 SLP112 T02720194
TAF
KLUF 
35nm SE 
271200Z 2712/2818 VRB06KT 9999 FEW250 QNH2990INS BECMG 2719/2720 23009KT 9999 SCT200 QNH2990INS WND VRB06KT AFT 2805 TX37/2723Z TN26/2713Z
KDVT 
40nm SE 
271120Z 2712/2812 05005KT P6SM FEW250 FM272100 24007KT P6SM FEW100 SCT250 FM280500 10005KT P6SM FEW150 BKN250
NOTAMs
Click for the latest NOTAMs
NOTAMs are issued by the DoD/FAA and will open in a separate window not controlled by AirNav.

 

 
 

FBO, Fuel Providers, and Aircraft Ground Support

  
 Business Name 
 
 Contact 
 
 Services / Description 
 
Fuel Prices
 
Comments
  
 Town of Wickenburg
928-684-0754
[web site]
[email]
Aviation fuel, Aircraft parking (ramp or tiedown), Hangar leasing / sales, Catering, Pilots lounge / snooze room, Computerized weather, Internet access, Restrooms
 
Face masks required  
 
More info about Town of Wickenburg
independent
100LL Jet A
FS --- $4.95 
SS $4.50 $4.95 
 Updated 28-Jun-2021
 
   1 read write
FS=Full service
SS=Self service
Update Fuel Prices
 

Would you like to see your business listed on this page?

 If your business provides an interesting product or service to pilots, flight crews, aircraft, or users of the Wickenburg Municipal Airport, you should consider listing it here.  To start the listing process, click on the button below
 
Add a business
 

Other Pages about Wickenburg Municipal Airport

www.wickenburgairport.com
 
Update a link
 
Copyright © AirNav, LLC. All rights reserved. Privacy Policy  Contact